Latest Weather Observations for Naracoorte

IDS60801

Issued at 10:41 pm CST Monday 18 June 2018 (issued every 10 minutes, with the page automatically refreshed every 10 minutes)

About weather observations | Map of weather stations | Latest weather observations for SA | Other Formats
Station Details ID: 026099 Name: NARACOORTE AERODROME Lat: -36.98 Lon: 140.73 Height: 49.72 m
Data from the previous 72 hours. | See also: Recent months at Naracoorte
Date/Time
CST
Temp
°C
App
Temp
°C
Dew
Point
°C
Rel
Hum
%
Delta-T
°C
Wind Press
QNH
hPa
Press
MSL
hPa
Rain since
9am
mm
Dir  Spd
km/h
Gust
km/h
Spd
kts
Gust
kts
18/10:30pm 7.3 4.8 3.7 78 1.5 E 6 6 3 3 1028.5 1028.6 0.0
18/10:00pm 8.7 5.8 4.5 75 1.9 ENE 9 15 5 8 1028.6 1028.7 0.0
18/09:30pm 9.1 6.3 5.1 76 1.8 ESE 9 11 5 6 1028.9 1029.0 0.0
18/09:00pm 9.2 6.4 5.0 75 1.9 ESE 9 11 5 6 1029.1 1029.2 0.0
18/08:30pm 9.6 6.3 4.6 71 2.2 SE 11 17 6 9 1029.2 1029.3 0.0
18/08:00pm 9.3 6.4 4.9 74 2.0 SE 9 13 5 7 1029.2 1029.3 0.0
18/07:30pm 9.5 5.8 4.7 72 2.1 SE 13 15 7 8 1029.3 1029.4 0.0
18/07:00pm 9.4 6.2 5.2 75 1.9 ESE 11 15 6 8 1029.2 1029.3 0.0
18/06:30pm 9.5 6.3 5.3 75 1.9 SE 11 13 6 7 1029.2 1029.3 0.0
18/06:00pm 9.6 6.0 5.2 74 2.0 SE 13 19 7 10 1028.9 1029.0 0.0
18/05:30pm 9.6 6.4 5.2 74 2.0 SE 11 17 6 9 1028.9 1029.0 0.0
18/05:00pm 9.8 7.1 5.4 74 2.0 SSE 9 13 5 7 1029.1 1029.2 0.0
18/04:30pm 10.1 6.6 5.3 72 2.2 SE 13 17 7 9 1029.1 1029.2 0.0
18/04:00pm 10.4 6.6 6.0 74 2.0 SSE 15 20 8 11 1028.8 1028.9 0.0
18/03:30pm 10.6 7.1 5.4 70 2.4 SSE 13 15 7 8 1028.7 1028.8 0.0
18/03:00pm 10.8 7.3 5.3 69 2.5 SE 13 17 7 9 1028.7 1028.8 0.0
18/02:30pm 10.8 6.0 4.7 66 2.7 S 19 24 10 13 1028.8 1028.9 0.0
18/02:00pm 10.9 6.5 5.0 67 2.7 SE 17 22 9 12 1028.8 1028.9 0.0
18/01:30pm 11.0 6.5 6.2 72 2.2 SSE 19 26 10 14 1028.9 1029.0 0.0
18/01:00pm 10.5 5.2 6.6 77 1.8 S 24 32 13 17 1029.2 1029.3 0.0
18/12:30pm 10.8 6.5 6.9 77 1.8 S 19 24 10 13 1029.2 1029.3 0.0
18/12:00pm 10.8 6.8 6.7 76 1.9 SSE 17 22 9 12 1029.6 1029.7 0.0
18/11:30am 11.2 6.9 7.1 76 1.9 SSE 19 24 10 13 1029.9 1030.0 0.0
18/11:00am 10.6 6.1 7.1 79 1.7 SSE 20 28 11 15 1030.1 1030.2 0.0
18/10:30am 9.6 6.6 7.5 87 1.0 S 13 17 7 9 1030.2 1030.3 0.0
18/10:00am 8.4 5.4 7.5 94 0.4 S 13 19 7 10 1030.1 1030.2 0.0
18/09:30am 7.4 6.7 7.0 97 0.2 CALM 0 11 0 6 1030.0 1030.1 0.0
18/09:00am 6.1 4.0 5.7 97 0.2 SSE 6 7 3 4 1029.8 1029.9 0.4
18/08:30am 4.7 2.3 4.4 98 0.1 S 6 7 3 4 1029.7 1029.8 0.4
18/08:00am 3.1 1.6 2.8 98 0.1 CALM 0 0 0 0 1029.6 1029.7 0.4
18/07:30am 3.5 2.0 3.2 98 0.1 CALM 0 0 0 0 1029.2 1029.3 0.4
18/07:00am 3.7 2.3 3.4 98 0.1 CALM 0 0 0 0 1029.0 1029.1 0.4
18/06:30am 3.2 1.7 2.9 98 0.1 CALM 0 0 0 0 1028.9 1029.0 0.4
18/06:00am 2.9 1.3 2.6 98 0.1 CALM 0 0 0 0 1028.7 1028.8 0.4
18/05:30am 3.1 1.6 2.8 98 0.1 CALM 0 0 0 0 1028.5 1028.6 0.4
18/05:00am 3.2 1.7 2.8 97 0.2 CALM 0 0 0 0 1028.4 1028.5 0.4
18/04:30am 3.6 2.1 3.2 97 0.2 CALM 0 0 0 0 1028.5 1028.6 0.4
18/04:00am 3.7 1.1 3.3 97 0.2 WNW 6 9 3 5 1028.4 1028.5 0.4
18/03:30am 3.0 1.4 2.6 97 0.2 CALM 0 6 0 3 1028.5 1028.6 0.4
18/03:00am 2.6 1.0 2.2 97 0.2 CALM 0 0 0 0 1028.2 1028.3 0.4
18/02:30am 2.3 0.6 1.9 97 0.2 CALM 0 0 0 0 1028.0 1028.1 0.4
18/02:00am 3.3 1.8 2.9 97 0.2 CALM 0 0 0 0 1027.8 1027.9 0.4
18/01:30am 2.7 1.0 2.1 96 0.2 CALM 0 0 0 0 1027.8 1027.9 0.4
18/01:00am 3.1 1.5 2.4 95 0.3 CALM 0 0 0 0 1027.8 1027.9 0.4
18/12:30am 4.2 2.8 3.5 95 0.3 CALM 0 6 0 3 1027.8 1027.9 0.4
18/12:00am 4.5 2.8 3.8 95 0.3 SE 2 6 1 3 1027.8 1027.9 0.4
 
Date/Time
CST
Temp
°C
App
Temp
°C
Dew
Point
°C
Rel
Hum
%
Delta-T
°C
Wind Press
QNH
hPa
Press
MSL
hPa
Rain since
9am
mm
Dir  Spd
km/h
Gust
km/h
Spd
kts
Gust
kts
17/11:30pm 5.0 2.4 4.3 95 0.3 SSE 7 9 4 5 1028.1 1028.2 0.4
17/11:00pm 4.8 2.7 4.1 95 0.3 S 4 7 2 4 1028.0 1028.1 0.4
17/10:30pm 4.9 1.1 4.0 94 0.4 SSW 13 17 7 9 1027.8 1027.9 0.4
17/10:00pm 5.0 1.2 3.8 92 0.5 SSW 13 15 7 8 1027.9 1028.0 0.4
17/09:30pm 7.0 2.7 5.3 89 0.7 SSW 17 19 9 10 1027.8 1027.9 0.4
17/09:00pm 7.4 3.6 5.9 90 0.7 S 15 19 8 10 1027.8 1027.9 0.4
17/08:30pm 7.0 2.8 5.6 91 0.6 SW 17 19 9 10 1027.5 1027.6 0.4
17/08:00pm 7.0 2.7 5.3 89 0.8 SW 17 20 9 11 1027.2 1027.3 0.4
17/07:30pm 7.6 2.8 5.4 86 1.0 SSW 20 28 11 15 1027.0 1027.1 0.4
17/07:00pm 7.9 2.7 5.4 84 1.1 SW 22 28 12 15 1026.7 1026.8 0.4
17/06:30pm 8.2 3.4 5.5 83 1.2 SW 20 28 11 15 1026.2 1026.3 0.4
17/06:00pm 8.2 3.6 5.8 85 1.1 SW 19 26 10 14 1025.9 1026.0 0.4
17/05:30pm 8.3 3.5 5.6 83 1.2 SSW 20 28 11 15 1025.4 1025.5 0.4
17/05:00pm 9.0 3.7 6.6 85 1.1 S 24 28 13 15 1025.2 1025.3 0.4
17/04:30pm 9.4 5.0 7.3 87 1.0 S 20 26 11 14 1024.9 1025.0 0.4
17/04:00pm 9.3 3.0 7.4 88 0.9 S 30 43 16 23 1024.8 1024.9 0.2
17/03:30pm 10.0 4.0 6.9 81 1.5 SSW 28 35 15 19 1024.5 1024.6 0.2
17/03:00pm 10.0 4.0 7.1 82 1.4 SW 28 41 15 22 1024.2 1024.3 0.2
17/02:30pm 10.7 3.7 6.1 73 2.1 SSW 32 50 17 27 1023.7 1023.8 0.2
17/02:00pm 9.7 1.9 6.6 81 1.4 S 37 52 20 28 1023.6 1023.7 0.2
17/01:48pm 11.2 3.7 6.3 72 2.3 SSW 35 56 19 30 1023.3 1023.4 0.2
17/01:30pm 11.5 4.1 6.6 72 2.3 SSW 35 44 19 24 1023.2 1023.3 0.2
17/01:06pm 11.1 4.2 6.3 72 2.3 S 32 50 17 27 1023.3 1023.4 0.2
17/01:00pm 11.8 4.7 5.7 66 2.8 S 32 39 17 21 1023.2 1023.3 0.2
17/12:30pm 11.7 3.5 6.4 70 2.5 SSW 39 56 21 30 1023.3 1023.4 0.2
17/12:26pm 12.0 4.5 6.1 67 2.8 SSW 35 56 19 30 1023.3 1023.4 0.2
17/12:00pm 12.1 5.1 7.0 71 2.4 SSW 33 44 18 24 1023.6 1023.7 0.2
17/11:30am 10.1 3.4 7.5 84 1.2 SSW 32 43 17 23 1023.8 1023.9 0.2
17/11:17am 9.7 2.5 6.1 78 1.7 S 33 56 18 30 1024.0 1024.1 0.2
17/11:00am 11.3 4.4 6.6 73 2.2 SSW 32 39 17 21 1023.9 1024.0 0.2
17/10:30am 11.0 4.1 6.6 74 2.1 SSW 32 41 17 22 1023.8 1023.9 0.2
17/10:00am 10.5 5.3 7.2 80 1.6 SW 24 30 13 16 1023.7 1023.8 0.2
17/09:30am 9.7 5.2 7.0 83 1.3 SW 20 26 11 14 1023.5 1023.6 0.0
17/09:00am 9.3 3.2 6.7 84 1.2 SW 28 35 15 19 1023.1 1023.2 7.0
17/08:30am 8.2 3.2 6.3 88 0.9 WSW 22 26 12 14 1022.7 1022.8 7.0
17/08:00am 6.9 2.3 5.5 91 0.6 WSW 19 20 10 11 1022.4 1022.4 7.0
17/07:30am 5.7 1.3 4.7 93 0.4 WSW 17 20 9 11 1021.7 1021.7 7.0
17/07:00am 6.2 1.8 4.8 91 0.6 WSW 17 22 9 12 1021.4 1021.4 7.0
17/06:30am 6.4 2.1 5.2 92 0.5 SW 17 19 9 10 1021.1 1021.1 7.0
17/06:00am 6.9 2.0 5.2 89 0.7 SW 20 24 11 13 1020.8 1020.8 7.0
17/05:30am 7.6 2.1 5.9 89 0.8 SW 24 33 13 18 1020.4 1020.4 7.0
17/05:00am 7.7 3.3 6.5 92 0.6 SW 19 28 10 15 1020.2 1020.2 6.8
17/04:30am 7.8 3.2 6.6 92 0.6 SW 20 26 11 14 1020.0 1020.0 6.8
17/04:00am 7.9 2.5 6.4 90 0.7 SW 24 32 13 17 1020.1 1020.1 6.8
17/03:30am 7.8 2.8 6.6 92 0.6 SW 22 26 12 14 1020.0 1020.0 6.8
17/03:00am 7.5 2.4 6.0 90 0.7 SW 22 28 12 15 1020.1 1020.1 6.8
17/02:30am 7.8 3.2 6.4 91 0.6 WSW 20 24 11 13 1020.0 1020.0 6.8
17/02:00am 8.0 1.9 6.8 92 0.6 SW 28 35 15 19 1020.0 1020.0 6.8
17/01:30am 7.7 2.7 6.3 91 0.6 SW 22 28 12 15 1019.8 1019.8 6.6
17/01:00am 7.3 2.6 6.2 93 0.5 WSW 20 24 11 13 1019.7 1019.7 6.6
17/12:30am 6.9 3.1 6.0 94 0.4 WSW 15 17 8 9 1019.7 1019.7 6.6
17/12:00am 6.9 3.5 6.0 94 0.4 WSW 13 17 7 9 1019.7 1019.7 6.4
 
Date/Time
CST
Temp
°C
App
Temp
°C
Dew
Point
°C
Rel
Hum
%
Delta-T
°C
Wind Press
QNH
hPa
Press
MSL
hPa
Rain since
9am
mm
Dir  Spd
km/h
Gust
km/h
Spd
kts
Gust
kts
16/11:30pm 7.1 3.0 6.2 94 0.4 W 17 20 9 11 1019.6 1019.6 6.4
16/11:00pm 6.6 2.4 5.7 94 0.4 W 17 20 9 11 1019.3 1019.3 6.4
16/10:30pm 6.8 2.0 5.6 92 0.5 WSW 20 24 11 13 1019.1 1019.1 6.4
16/10:00pm 6.6 2.0 5.6 93 0.4 WSW 19 22 10 12 1018.9 1018.9 6.4
16/09:30pm 6.5 1.3 5.5 93 0.4 WSW 22 28 12 15 1019.0 1019.0 6.2
16/09:00pm 5.8 1.4 4.9 94 0.4 WSW 17 20 9 11 1018.8 1018.8 6.2
16/08:30pm 5.5 1.1 4.6 94 0.4 W 17 20 9 11 1018.5 1018.5 6.2
16/08:00pm 5.7 1.0 5.0 95 0.3 W 19 22 10 12 1018.4 1018.4 6.2
16/07:30pm 5.3 1.2 4.4 94 0.4 W 15 17 8 9 1018.2 1018.2 6.0
16/07:00pm 5.5 2.2 4.5 93 0.4 W 11 15 6 8 1017.9 1017.9 6.0
16/06:30pm 5.9 2.7 4.9 93 0.4 WSW 11 15 6 8 1017.7 1017.7 6.0
16/06:00pm 6.0 3.5 4.8 92 0.5 WNW 7 11 4 6 1017.3 1017.3 6.0
16/05:30pm 6.2 3.4 5.0 92 0.5 SSW 9 11 5 6 1017.0 1017.0 6.0
16/05:00pm 6.2 1.3 5.0 92 0.5 S 20 26 11 14 1016.9 1016.9 5.8
16/04:30pm 6.2 -0.3 4.7 90 0.6 SSW 28 35 15 19 1016.7 1016.8 5.4
16/04:00pm 6.7 -0.1 5.2 90 0.7 SSW 30 39 16 21 1016.6 1016.7 4.4
16/03:30pm 7.3 -0.5 5.1 86 1.0 SW 35 46 19 25 1016.1 1016.2 4.0
16/03:21pm 7.6 0.5 5.4 86 1.0 SW 32 43 17 23 1015.9 1016.0 4.0
16/03:00pm 7.7 3.1 6.3 91 0.6 SW 20 24 11 13 1015.7 1015.8 4.0
16/02:30pm 7.5 2.4 6.0 90 0.7 SW 22 28 12 15 1015.5 1015.6 3.6
16/02:00pm 7.9 3.2 6.2 89 0.8 SW 20 30 11 16 1015.2 1015.3 3.0
16/01:30pm 7.3 1.4 5.8 90 0.7 SW 26 32 14 17 1015.3 1015.4 2.6
16/01:10pm 7.5 0.3 4.8 83 1.2 SW 32 52 17 28 1015.5 1015.6 1.0
16/01:07pm 8.2 1.5 5.8 85 1.1 SW 30 52 16 28 1015.4 1015.5 0.6
16/01:03pm 8.8 2.4 5.4 79 1.5 WSW 28 52 15 28 1015.2 1015.3 0.6
16/01:02pm 9.3 3.0 5.9 79 1.6 WSW 28 52 15 28 1015.0 1015.1 0.6
16/01:00pm 10.1 4.8 6.6 79 1.6 WSW 24 32 13 17 1015.0 1015.1 0.6
16/12:30pm 8.0 4.6 6.1 88 0.9 SW 13 22 7 12 1015.3 1015.4 0.6
16/12:00pm 9.3 1.0 4.1 70 2.3 WSW 37 46 20 25 1015.4 1015.5 0.0
16/11:56am 10.4 3.0 5.0 69 2.4 W 33 44 18 24 1015.4 1015.5 0.0
16/11:30am 11.6 4.9 3.9 59 3.4 W 28 35 15 19 1015.5 1015.6 0.0
16/11:00am 11.1 6.0 6.0 71 2.4 W 22 28 12 15 1016.1 1016.2 0.0
16/10:30am 10.3 4.8 6.1 75 1.9 W 24 33 13 18 1016.6 1016.7 0.0
16/10:00am 9.5 5.4 6.2 80 1.5 WNW 17 24 9 13 1016.7 1016.8 0.0
16/09:30am 8.4 5.0 6.0 85 1.1 NW 13 17 7 9 1016.5 1016.6 0.0
16/09:00am 7.3 4.2 5.4 88 0.8 NNW 11 15 6 8 1016.4 1016.5 8.2
16/08:30am 6.2 3.4 5.3 94 0.4 N 9 11 5 6 1016.3 1016.4 8.2
16/08:00am 5.9 2.3 5.0 94 0.4 NNW 13 17 7 9 1016.2 1016.3 8.2
16/07:30am 5.6 1.6 4.7 94 0.4 NNW 15 19 8 10 1016.2 1016.3 8.2
16/07:00am 6.1 3.9 5.1 93 0.4 NNE 6 11 3 6 1015.9 1016.0 8.2
16/06:30am 6.4 3.3 5.5 94 0.4 WNW 11 15 6 8 1016.2 1016.3 8.0
16/06:00am 6.3 2.8 5.4 94 0.4 WNW 13 19 7 10 1015.8 1015.9 7.6
16/05:30am 6.3 3.9 5.4 94 0.4 NW 7 9 4 5 1015.3 1015.4 7.0
16/05:00am 6.4 3.7 5.4 93 0.4 NNW 9 13 5 7 1014.6 1014.7 7.0
16/04:30am 6.7 2.8 5.5 92 0.5 W 15 20 8 11 1014.9 1015.0 7.0
16/04:00am 6.6 1.1 5.7 94 0.4 WNW 24 30 13 16 1015.3 1015.4 4.2
16/03:30am 6.7 2.0 5.3 91 0.6 NW 19 24 10 13 1014.6 1014.7 3.2
16/03:00am 6.6 1.9 5.2 91 0.6 NNW 19 24 10 13 1014.6 1014.7 3.2
16/02:30am 6.7 2.5 5.5 92 0.5 NNW 17 20 9 11 1015.2 1015.3 3.2
16/02:00am 6.5 3.0 5.5 93 0.4 N 13 17 7 9 1015.0 1015.1 3.0
16/01:30am 6.8 3.7 5.4 91 0.6 NNW 11 15 6 8 1015.2 1015.3 3.0
16/01:00am 6.9 2.3 5.4 90 0.7 W 19 22 10 12 1015.9 1016.0 2.4
16/12:30am 7.2 2.5 5.2 87 0.9 WSW 19 28 10 15 1016.0 1016.1 2.2
16/12:00am 6.1 2.0 4.4 89 0.7 NNW 15 19 8 10 1016.0 1016.1 1.8
 
Date/Time
CST
Temp
°C
App
Temp
°C
Dew
Point
°C
Rel
Hum
%
Delta-T
°C
Wind Press
QNH
hPa
Press
MSL
hPa
Rain since
9am
mm
Dir  Spd
km/h
Gust
km/h
Spd
kts
Gust
kts
15/11:30pm 5.8 1.6 3.8 87 0.8 NNW 15 20 8 11 1015.9 1016.0 1.8
15/11:00pm 5.6 1.8 3.8 88 0.8 N 13 15 7 8 1016.0 1016.1 1.8

Other Formats:

Comma delimited format used in spreadsheet applications
http://www.bom.gov.au/fwo/IDS60801/IDS60801.94820.axf

JavaScript Object Notation format (JSON) in row-major order
http://www.bom.gov.au/fwo/IDS60801/IDS60801.94820.json